Správy METAR z letísk v Slovenskej republike

LZTT - Poprad Tatry, Slovenská republika
Vzdialenosť od tejto stanice: Západne 25km
Aktualizované: 24.04.2018 14:00
 
Teplota vzduchu: 20°C
Vietor: Z 30 km/h
Rosný bod: 6°C
Vlhkosť vzduchu: 40%
Tlak vzduchu: 1016 hPa
Oblačnosť: oblačno
Viditeľnosť: 10 km
Detaily oblačnosti: skoro jasno 1006 m
oblačno 2012 m
2018/04/24 12:00 LZTT 241200Z 27016KT 230V290 9999 FEW033 SCT066 20/06 Q1016 NOSIG
LZKZ - Košice, Slovenská republika
Vzdialenosť od tejto stanice: VJV 62km
Aktualizované: 24.04.2018 14:00
 
Teplota vzduchu: 20°C
Vietor: VSV 7 km/h
Rosný bod: 11°C
Vlhkosť vzduchu: 56%
Tlak vzduchu: 1015 hPa
Stav počasia: Miernejší dážď, Prehánky
Oblačnosť: skoro zatiahnuto
Viditeľnosť: 10 km
Detaily oblačnosti: oblačno 1219 m
skoro zatiahnuto 2134 m
2018/04/24 12:00 LZKZ 241200Z 06004KT 030V090 9999 -SHRA SCT040 BKN070 20/11 Q1015 NOSIG
 
LZSL - Sliač, Slovenská republika
Vzdialenosť od tejto stanice: ZJZ 131km
Aktualizované: 24.04.2018 14:00
 
Teplota vzduchu: 23°C
Vietor: ZSZ 24 km/h
Rosný bod: 7°C
Vlhkosť vzduchu: 36%
Tlak vzduchu: 1015 hPa
Oblačnosť: skoro zatiahnuto
Viditeľnosť: 10 km
Detaily oblačnosti: skoro zatiahnuto 1920 m
2018/04/24 12:00 LZSL 241200Z 30013KT 260V340 9999 BKN063 23/07 Q1015
LZZI - Žilina, Slovenská republika
Vzdialenosť od tejto stanice: Západne 161km
Aktualizované: 24.04.2018 14:00
 
Teplota vzduchu: 20°C
Vietor: SZ 6 km/h
Rosný bod: 11°C
Vlhkosť vzduchu: 56%
Tlak vzduchu: 1016 hPa
Oblačnosť: oblačno
Viditeľnosť: 10 km
Detaily oblačnosti: skoro jasno 1463 m
oblačno 1463 m
2018/04/24 12:00 LZZI 241200Z 32003KT 280V350 9999 FEW048TCU SCT048 20/11 Q1016
 
LZIB - Bratislava, Slovernská republika
Vzdialenosť od tejto stanice: ZJZ 274km
Aktualizované: 24.04.2018 14:00
 
Teplota vzduchu: 21°C
Vietor: SZ 22 km/h
Rosný bod: 10°C
Vlhkosť vzduchu: 50%
Tlak vzduchu: 1017 hPa
Oblačnosť: oblačno
Viditeľnosť: 10 km
Detaily oblačnosti: oblačno 1341 m
2018/04/24 12:00 LZIB 241200Z 31012KT 9999 SCT044 21/10 Q1017 NOSIG
LZPP - Piešťany, Slovenská republika
Vzdialenosť od tejto stanice: ZJZ 237km
Aktualizované: 24.04.2018 14:00
 
Teplota vzduchu: 22°C
Vietor: Z 20 km/h
Rosný bod: 9°C
Vlhkosť vzduchu: 44%
Tlak vzduchu: 1016 hPa
Oblačnosť: oblačno
Viditeľnosť: 10 km
Detaily oblačnosti: oblačno 1372 m
2018/04/24 12:00 LZPP 241200Z 27011KT 250V310 9999 SCT045 22/09 Q1016
 
LZNI - Nitra, Slovenská republika
Vzdialenosť od tejto stanice: ZJZ 207km
Aktualizované: 31.12.2012 21:00
Údaje nie sú aktuálne
 
Teplota vzduchu: 1°C
Vietor: premenlivý 0 km/h
Rosný bod: -2°C
Vlhkosť vzduchu: 81%
Tlak vzduchu: 1022 hPa
Stav počasia: Jasno
Oblačnosť: jasná obloha
Viditeľnosť: viac ako 10 km
2012/12/31 20:00 LZNI 312000Z /////KT CAVOK 01/M02 Q1022
LZPE - Prievidza, Slovenská republika
Vzdialenosť od tejto stanice: ZJZ 148km
Aktualizované: 31.12.2012 21:00
Údaje nie sú aktuálne
 
Teplota vzduchu: -3°C
Vietor: premenlivý 0 km/h
Rosný bod: -4°C
Vlhkosť vzduchu: 93%
Tlak vzduchu: 1022 hPa
Stav počasia: Jasno
Oblačnosť: jasná obloha
Viditeľnosť: viac ako 10 km
2012/12/31 20:00 LZPE 312000Z /////KT CAVOK M03/M04 Q1022
 
LZKC - Kamenica nad Cirochou, Slovenská republika
Vzdialenosť od tejto stanice: VJV 90km
Aktualizované: 01.01.2013 13:00
Údaje nie sú aktuálne
 
Teplota vzduchu: 4°C
Chlad vetra: 1°C
Vietor: JJZ 11 km/h
Rosný bod: -7°C
Vlhkosť vzduchu: 45%
Tlak vzduchu: 1019 hPa
Oblačnosť: skoro jasno
Viditeľnosť: 10 km
Detaily oblačnosti: skoro jasno 1615 m
2013/01/01 12:00 LZKC 011200Z 21006KT 150V290 9999 FEW053 04/M07 Q1019
LZLU - Lučenec, Slovenská republika
Vzdialenosť od tejto stanice: ZJZ 123km
Aktualizované: 14.03.2013 12:10
Údaje nie sú aktuálne
 
Teplota vzduchu: 2°C
Chlad vetra: -2°C
Vietor: V 17 km/h
Rosný bod: 1°C
Vlhkosť vzduchu: 93%
Tlak vzduchu: 994 hPa
2013/03/14 11:10 LZLU 141110Z AUTO 08009KT //// ////// 02/01 Q0994

Metar display script od Saratoga-Weather.org
upravil a preložil Miloš Jiřík Konečná úprava a preklad do Slovenčiny Teodor Zibura